Time;durP1;ratioP1;P1;durP2;ratioP2;P2;SDS_P1;SDS_P2;PMS_P1;PMS_P2;Temp;Humidity;BMP_temperature;BMP_pressure;BME280_temperature;BME280_humidity;BME280_pressure;Samples;Min_cycle;Max_cycle;Signal;HPM_P1;HPM_P2
2022/05/30 00:01:54;;;;;;;7.50;1.60;;;;;;;8.52;96.78;101203.75;5270495;28;20085;-65
2022/05/30 00:04:25;;;;;;;6.93;2.00;;;;;;;8.50;96.93;101208.31;5273480;28;20025;-65
2022/05/30 00:06:56;;;;;;;9.77;1.75;;;;;;;8.56;97.18;101205.25;5275590;28;20157;-65
2022/05/30 00:09:27;;;;;;;7.38;1.75;;;;;;;8.42;97.26;101201.66;5275435;28;20032;-65
2022/05/30 00:12:00;;;;;;;7.90;1.70;;;;;;;8.40;97.82;101200.88;5270513;28;20099;-65
2022/05/30 00:14:31;;;;;;;7.28;1.63;;;;;;;8.48;100.00;101194.25;5271187;28;20035;-65
2022/05/30 00:17:03;;;;;;;6.18;1.75;;;;;;;8.35;97.66;101200.28;5277047;28;20029;-65
2022/05/30 00:19:38;;;;;;;8.68;1.73;;;;;;;8.34;97.70;101203.91;5274993;28;20039;-66
2022/05/30 00:22:13;;;;;;;6.70;1.88;;;;;;;8.30;97.72;101201.50;5275038;28;20047;-65
2022/05/30 00:24:44;;;;;;;7.03;1.77;;;;;;;8.29;98.13;101199.81;5275381;28;20053;-65
2022/05/30 00:27:16;;;;;;;8.98;2.20;;;;;;;8.28;98.97;101206.91;5274695;28;20492;-65
2022/05/30 00:29:47;;;;;;;9.88;2.00;;;;;;;8.23;98.46;101206.38;5273241;28;20056;-65
2022/05/30 00:32:18;;;;;;;8.77;2.00;;;;;;;8.21;98.89;101202.94;5275859;28;20035;-65
2022/05/30 00:34:50;;;;;;;8.70;1.90;;;;;;;8.28;100.00;101198.09;5273997;28;20115;-65
2022/05/30 00:37:21;;;;;;;5.82;1.92;;;;;;;8.25;100.00;101200.00;5272624;28;20025;-65
2022/05/30 00:39:53;;;;;;;7.40;2.03;;;;;;;8.21;100.00;101203.78;5273877;28;20432;-65
2022/05/30 00:42:26;;;;;;;9.10;2.40;;;;;;;8.24;100.00;101189.44;5278845;28;20114;-65
2022/05/30 00:44:57;;;;;;;6.22;1.92;;;;;;;8.21;100.00;101187.00;5278329;28;20126;-65
2022/05/30 00:47:29;;;;;;;7.07;1.70;;;;;;;8.18;100.00;101188.03;5278440;28;20036;-65
2022/05/30 00:50:01;;;;;;;6.22;2.00;;;;;;;8.26;100.00;101187.56;5278053;28;20510;-65
2022/05/30 00:52:37;;;;;;;7.93;2.13;;;;;;;8.28;100.00;101180.34;5279230;28;20383;-65
2022/05/30 00:55:18;;;;;;;10.05;2.30;;;;;;;8.20;100.00;101187.94;5274133;28;20401;-65
2022/05/30 00:57:50;;;;;;;7.60;2.05;;;;;;;8.28;100.00;101187.47;5274202;28;20119;-65
2022/05/30 01:00:26;;;;;;;8.80;2.00;;;;;;;8.24;100.00;101186.78;5280221;28;20028;-65
2022/05/30 01:08:38;;;;;;;6.35;1.80;;;;;;;8.20;100.00;101182.63;5273888;28;20076;-65
2022/05/30 01:11:09;;;;;;;6.15;2.28;;;;;;;8.26;100.00;101171.59;5277039;28;20123;-65
2022/05/30 01:13:41;;;;;;;11.80;2.40;;;;;;;8.20;100.00;101169.31;5272938;28;20127;-65
2022/05/30 01:16:12;;;;;;;11.32;2.22;;;;;;;8.24;100.00;101173.50;5279478;28;20028;-65
2022/05/30 01:18:52;;;;;;;7.10;2.08;;;;;;;8.16;100.00;101178.44;5274565;28;20504;-65
2022/05/30 01:21:51;;;;;;;8.60;2.30;;;;;;;8.22;100.00;101184.22;5269466;28;20282;-65
2022/05/30 01:24:25;;;;;;;8.48;2.50;;;;;;;8.22;100.00;101175.41;5274738;28;20135;-65
2022/05/30 01:27:05;;;;;;;8.60;2.25;;;;;;;8.14;100.00;101177.69;5271816;28;20060;-65
2022/05/30 01:29:45;;;;;;;7.38;2.47;;;;;;;8.13;100.00;101173.31;5274917;28;20050;-65
2022/05/30 01:32:18;;;;;;;9.52;2.80;;;;;;;8.18;100.00;101179.19;5276264;28;20020;-65
2022/05/30 01:34:50;;;;;;;9.45;2.45;;;;;;;8.07;100.00;101174.53;5271931;28;20044;-65
2022/05/30 01:37:23;;;;;;;11.02;2.75;;;;;;;8.05;100.00;101171.13;5276780;28;20033;-65
2022/05/30 01:39:55;;;;;;;8.02;2.55;;;;;;;8.02;100.00;101176.63;5273761;28;20548;-65
2022/05/30 01:42:26;;;;;;;6.43;2.30;;;;;;;8.12;100.00;101172.44;5276007;28;20033;-66
2022/05/30 01:44:57;;;;;;;8.88;2.75;;;;;;;8.13;100.00;101155.56;5277552;28;20063;-65
2022/05/30 01:47:29;;;;;;;8.02;2.47;;;;;;;7.98;100.00;101156.50;5276328;28;20504;-65
2022/05/30 01:50:01;;;;;;;9.02;2.75;;;;;;;7.99;100.00;101164.38;5276529;28;20021;-65
2022/05/30 01:52:33;;;;;;;7.75;2.67;;;;;;;7.97;100.00;101165.41;5268814;28;20028;-65
2022/05/30 01:55:05;;;;;;;9.00;2.40;;;;;;;7.93;100.00;101159.44;5278441;28;20028;-65
2022/05/30 01:57:37;;;;;;;8.20;2.50;;;;;;;8.04;100.00;101159.63;5278059;28;20035;-65
2022/05/30 02:00:13;;;;;;;11.07;3.10;;;;;;;8.09;100.00;101147.88;5277371;28;20377;-65
2022/05/30 02:02:44;;;;;;;6.88;2.30;;;;;;;8.09;100.00;101154.03;5277042;28;20048;-65
2022/05/30 02:05:16;;;;;;;8.65;2.47;;;;;;;8.03;100.00;101157.94;5278636;28;20125;-65
2022/05/30 02:07:47;;;;;;;10.02;3.08;;;;;;;8.05;100.00;101153.38;5277938;28;20404;-65
2022/05/30 02:10:19;;;;;;;11.63;2.90;;;;;;;8.03;100.00;101152.63;5275811;28;20490;-65
2022/05/30 02:12:50;;;;;;;7.30;2.38;;;;;;;7.96;100.00;101147.78;5278065;28;20024;-65
2022/05/30 02:15:22;;;;;;;10.05;2.78;;;;;;;7.91;100.00;101150.69;5270750;28;20437;-65
2022/05/30 02:17:54;;;;;;;10.18;3.00;;;;;;;7.89;100.00;101149.94;5277612;28;20025;-65
2022/05/30 02:20:25;;;;;;;9.95;3.05;;;;;;;7.88;100.00;101153.56;5278247;28;20445;-65
2022/05/30 02:22:58;;;;;;;6.63;2.80;;;;;;;7.89;100.00;101157.91;5273043;28;20081;-65
2022/05/30 02:25:29;;;;;;;10.52;3.78;;;;;;;7.85;100.00;101153.72;5277674;28;20550;-65
2022/05/30 02:28:00;;;;;;;9.45;3.40;;;;;;;7.89;100.00;101149.09;5277514;28;20074;-65
2022/05/30 02:30:31;;;;;;;11.75;4.22;;;;;;;7.88;100.00;101148.25;5276525;28;20189;-65
2022/05/30 02:38:44;;;;;;;10.45;4.45;;;;;;;7.82;100.00;101148.59;5276343;28;20115;-65
2022/05/30 02:41:15;;;;;;;13.38;4.47;;;;;;;7.74;100.00;101146.41;5278272;28;20021;-65
2022/05/30 02:43:46;;;;;;;14.35;5.57;;;;;;;7.71;100.00;101140.41;5275409;28;20501;-65
2022/05/30 02:46:17;;;;;;;12.20;5.20;;;;;;;7.78;100.00;101131.97;5277078;28;20411;-65
2022/05/30 02:48:49;;;;;;;14.63;4.82;;;;;;;7.65;100.00;101136.31;5272101;28;20056;-65
2022/05/30 02:51:20;;;;;;;15.30;6.20;;;;;;;7.65;100.00;101141.63;5272344;28;20029;-65
2022/05/30 02:53:52;;;;;;;12.05;4.78;;;;;;;7.61;100.00;101137.44;5274947;28;20387;-65
2022/05/30 02:56:24;;;;;;;11.57;5.53;;;;;;;7.59;100.00;101145.53;5276160;28;20158;-65
2022/05/30 02:58:58;;;;;;;15.07;6.07;;;;;;;7.60;100.00;101143.72;5269684;28;20107;-65
2022/05/30 03:01:31;;;;;;;12.48;5.93;;;;;;;7.58;100.00;101135.84;5276837;28;20107;-65
2022/05/30 03:04:05;;;;;;;13.07;5.70;;;;;;;7.65;100.00;101139.84;5272373;28;20029;-65
2022/05/30 03:06:36;;;;;;;13.27;5.95;;;;;;;7.55;100.00;101143.13;5276142;28;20028;-65
2022/05/30 03:09:07;;;;;;;13.07;6.35;;;;;;;7.57;100.00;101139.44;5277332;28;20090;-65
2022/05/30 03:11:39;;;;;;;12.40;5.90;;;;;;;7.54;100.00;101150.25;5274939;28;20085;-65
2022/05/30 03:14:10;;;;;;;12.32;5.80;;;;;;;7.46;100.00;101148.03;5276622;28;20051;-65
2022/05/30 03:16:41;;;;;;;9.85;5.47;;;;;;;7.43;100.00;101152.66;5274688;28;20043;-65
2022/05/30 03:19:13;;;;;;;12.75;6.30;;;;;;;7.47;100.00;101152.38;5274731;28;20082;-65
2022/05/30 03:21:44;;;;;;;12.48;6.07;;;;;;;7.39;100.00;101153.81;5274368;28;20042;-65
2022/05/30 03:24:15;;;;;;;16.08;6.63;;;;;;;7.37;100.00;101153.03;5268624;28;20110;-65
2022/05/30 03:26:46;;;;;;;13.43;6.10;;;;;;;7.37;100.00;101148.56;5273768;28;20526;-65
2022/05/30 03:29:18;;;;;;;14.07;6.15;;;;;;;7.46;100.00;101158.66;5277006;28;20068;-65
2022/05/30 03:31:49;;;;;;;10.18;6.05;;;;;;;7.53;100.00;101158.28;5273563;28;20107;-65
2022/05/30 03:34:21;;;;;;;12.80;6.13;;;;;;;7.53;100.00;101147.69;5272764;28;20036;-65
2022/05/30 03:36:52;;;;;;;12.32;6.68;;;;;;;7.53;100.00;101161.78;5276155;28;20067;-65
2022/05/30 03:39:23;;;;;;;16.38;6.22;;;;;;;7.32;100.00;101158.59;5275666;28;20040;-65
2022/05/30 03:41:54;;;;;;;15.68;6.47;;;;;;;7.26;100.00;101157.16;5274379;28;20029;-65
2022/05/30 03:44:26;;;;;;;12.43;6.28;;;;;;;7.23;100.00;101167.13;5272818;28;20479;-66
2022/05/30 03:46:57;;;;;;;13.70;6.68;;;;;;;7.39;100.00;101167.91;5275534;28;20040;-65
2022/05/30 03:49:28;;;;;;;14.38;6.40;;;;;;;7.23;100.00;101170.63;5272179;28;20078;-65
2022/05/30 03:51:59;;;;;;;17.50;6.80;;;;;;;7.33;100.00;101170.94;5266755;28;20039;-65
2022/05/30 03:54:31;;;;;;;21.15;6.90;;;;;;;7.33;100.00;101168.28;5273348;28;20479;-65
2022/05/30 03:57:03;;;;;;;16.77;6.60;;;;;;;7.39;100.00;101172.38;5275650;28;20028;-65
2022/05/30 03:59:34;;;;;;;16.05;6.93;;;;;;;7.37;100.00;101169.81;5275384;28;20028;-65
2022/05/30 04:02:05;;;;;;;14.13;6.63;;;;;;;7.33;100.00;101170.94;5276197;28;20120;-65
2022/05/30 04:04:37;;;;;;;18.20;8.48;;;;;;;7.33;100.00;101172.75;5275232;28;20375;-65
2022/05/30 04:07:08;;;;;;;17.00;6.78;;;;;;;7.34;100.00;101167.31;5275707;28;20449;-65
2022/05/30 04:09:39;;;;;;;20.25;7.72;;;;;;;7.43;100.00;101163.28;5275125;28;20427;-65
2022/05/30 04:12:10;;;;;;;15.18;7.22;;;;;;;7.52;100.00;101165.41;5276466;28;20467;-65
2022/05/30 04:14:42;;;;;;;15.43;6.65;;;;;;;7.60;100.00;101165.81;5269122;28;20032;-65
2022/05/30 04:17:13;;;;;;;15.10;7.18;;;;;;;7.54;100.00;101162.69;5275043;28;20044;-65
2022/05/30 04:19:44;;;;;;;17.70;7.22;;;;;;;7.55;100.00;101156.41;5272999;28;20028;-65
2022/05/30 04:22:16;;;;;;;13.65;6.93;;;;;;;7.61;100.00;101150.72;5275804;28;20039;-65
2022/05/30 04:24:47;;;;;;;14.32;6.85;;;;;;;7.54;100.00;101150.25;5271837;28;20132;-65
2022/05/30 04:27:18;;;;;;;14.63;6.82;;;;;;;7.59;100.00;101147.31;5272662;28;20036;-65
2022/05/30 04:29:50;;;;;;;16.23;6.43;;;;;;;7.52;100.00;101157.44;5276612;28;20036;-65
2022/05/30 04:32:22;;;;;;;15.15;6.75;;;;;;;7.57;100.00;101163.31;5275412;28;20078;-66
2022/05/30 04:34:54;;;;;;;19.55;7.00;;;;;;;7.43;100.00;101163.28;5274986;28;20116;-65
2022/05/30 04:37:27;;;;;;;16.20;7.03;;;;;;;7.47;100.00;101165.66;5271852;28;20028;-65
2022/05/30 04:39:58;;;;;;;12.27;7.03;;;;;;;7.46;100.00;101171.09;5273373;28;20043;-65
2022/05/30 04:42:30;;;;;;;19.38;8.05;;;;;;;7.39;100.00;101169.72;5273843;28;20379;-65
2022/05/30 04:45:01;;;;;;;19.20;7.75;;;;;;;7.30;100.00;101173.75;5275319;28;20565;-65
2022/05/30 04:47:34;;;;;;;15.98;7.80;;;;;;;7.29;100.00;101171.19;5274971;28;20044;-65
2022/05/30 04:50:09;;;;;;;12.85;7.32;;;;;;;7.28;100.00;101180.09;5275179;28;20044;-65
2022/05/30 04:52:41;;;;;;;14.70;7.63;;;;;;;7.25;100.00;101179.34;5274785;28;20020;-65
2022/05/30 04:55:15;;;;;;;16.08;8.07;;;;;;;7.25;100.00;101171.38;5274928;28;20044;-65
2022/05/30 04:57:48;;;;;;;18.02;7.57;;;;;;;7.29;100.00;101177.38;5272724;28;20025;-65
2022/05/30 05:00:24;;;;;;;13.27;8.13;;;;;;;7.32;100.00;101182.47;5275266;28;20028;-65
2022/05/30 05:02:55;;;;;;;17.92;7.80;;;;;;;7.26;100.00;101181.03;5274474;28;20283;-65
2022/05/30 05:05:26;;;;;;;18.42;8.82;;;;;;;7.49;100.00;101176.19;5275708;28;20767;-65
2022/05/30 05:08:16;;;;;;;16.83;8.50;;;;;;;7.49;100.00;101183.31;5275499;28;20497;-65
2022/05/30 05:10:56;;;;;;;16.35;7.82;;;;;;;7.64;100.00;101177.09;5275431;28;20157;-65
2022/05/30 05:13:28;;;;;;;18.50;8.15;;;;;;;7.63;100.00;101178.03;5275327;28;20024;-65
2022/05/30 05:15:59;;;;;;;16.20;7.93;;;;;;;7.73;100.00;101178.34;5273022;28;20114;-65
2022/05/30 05:18:31;;;;;;;21.27;8.18;;;;;;;7.82;100.00;101184.00;5269989;28;20032;-65
2022/05/30 05:21:02;;;;;;;17.20;7.93;;;;;;;7.93;100.00;101179.84;5276519;28;20056;-65
2022/05/30 05:23:34;;;;;;;15.73;8.13;;;;;;;8.02;100.00;101187.25;5276265;28;20039;-65
2022/05/30 05:26:07;;;;;;;17.65;7.35;;;;;;;8.04;100.00;101180.91;5277576;28;20025;-65
2022/05/30 05:28:38;;;;;;;17.00;7.27;;;;;;;8.22;100.00;101188.69;5275655;28;20020;-65
2022/05/30 05:31:14;;;;;;;15.73;7.40;;;;;;;8.30;100.00;101191.72;5279276;28;20052;-65
2022/05/30 05:33:45;;;;;;;14.18;7.55;;;;;;;8.36;100.00;101194.03;5277357;28;20030;-65
2022/05/30 05:36:22;;;;;;;16.02;6.75;;;;;;;8.39;100.00;101188.50;5276525;28;20116;-65
2022/05/30 05:38:53;;;;;;;16.75;6.80;;;;;;;8.42;100.00;101192.84;5273248;28;20036;-65
2022/05/30 05:41:25;;;;;;;13.50;6.30;;;;;;;8.48;100.00;101186.28;5277902;28;20032;-65
2022/05/30 05:43:58;;;;;;;12.68;6.00;;;;;;;8.53;100.00;101193.00;5278686;28;20387;-65
2022/05/30 05:46:31;;;;;;;14.93;5.93;;;;;;;8.55;100.00;101191.13;5278211;28;20485;-65
2022/05/30 05:49:03;;;;;;;12.50;5.90;;;;;;;8.70;100.00;101189.28;5278312;28;20028;-65
2022/05/30 05:51:34;;;;;;;13.40;5.28;;;;;;;8.71;100.00;101198.13;5278256;28;20035;-65
2022/05/30 05:54:06;;;;;;;9.07;4.90;;;;;;;8.80;100.00;101194.88;5278806;28;20012;-65
2022/05/30 05:56:38;;;;;;;11.65;4.68;;;;;;;8.96;100.00;101200.09;5278670;28;20482;-65
2022/05/30 05:59:09;;;;;;;11.77;5.10;;;;;;;8.94;100.00;101200.19;5277723;28;20040;-65
2022/05/30 06:01:40;;;;;;;13.55;5.43;;;;;;;9.01;100.00;101197.97;5278135;28;20394;-65
2022/05/30 06:04:13;;;;;;;10.48;4.47;;;;;;;9.01;100.00;101204.16;5278087;28;20044;-65
2022/05/30 06:06:45;;;;;;;9.52;4.50;;;;;;;9.04;100.00;101208.44;5276826;28;20025;-65
2022/05/30 06:09:16;;;;;;;13.05;4.63;;;;;;;9.19;100.00;101202.13;5278704;28;20036;-65
2022/05/30 06:11:47;;;;;;;11.20;4.50;;;;;;;9.15;99.56;101203.28;5277860;28;20028;-65
2022/05/30 06:14:19;;;;;;;9.70;3.83;;;;;;;9.13;100.00;101207.00;5271811;28;20051;-65
2022/05/30 06:16:50;;;;;;;7.72;4.30;;;;;;;9.17;98.62;101198.69;5274038;28;20028;-65
2022/05/30 06:19:22;;;;;;;8.38;3.60;;;;;;;9.11;97.46;101204.44;5277430;28;20033;-65
2022/05/30 06:21:53;;;;;;;8.65;4.47;;;;;;;9.12;97.61;101197.28;5277765;28;20032;-65
2022/05/30 06:24:24;;;;;;;8.20;3.13;;;;;;;9.18;95.43;101213.69;5277515;28;20075;-65
2022/05/30 06:26:56;;;;;;;6.78;2.35;;;;;;;9.18;94.29;101208.38;5276802;28;20501;-65
2022/05/30 06:29:27;;;;;;;7.13;1.83;;;;;;;9.21;92.41;101205.53;5275260;28;20506;-65
2022/05/30 06:31:58;;;;;;;7.07;2.05;;;;;;;9.30;92.17;101208.53;5273442;28;20031;-65
2022/05/30 06:34:31;;;;;;;7.93;2.38;;;;;;;9.44;90.35;101210.31;5275453;28;20032;-65
2022/05/30 06:37:02;;;;;;;7.43;2.20;;;;;;;9.50;92.02;101204.59;5278589;28;20032;-65
2022/05/30 06:39:33;;;;;;;6.28;2.05;;;;;;;9.51;88.82;101207.16;5273028;28;20032;-65
2022/05/30 06:42:12;;;;;;;8.50;2.03;;;;;;;9.60;89.53;101214.50;5276819;28;20033;-65
2022/05/30 06:44:43;;;;;;;9.43;2.50;;;;;;;9.74;88.72;101210.94;5275285;28;20025;-65
2022/05/30 06:47:14;;;;;;;7.88;2.50;;;;;;;9.76;89.29;101211.69;5276254;28;20032;-65
2022/05/30 06:49:46;;;;;;;9.63;2.05;;;;;;;9.84;88.18;101215.63;5274702;28;20051;-65
2022/05/30 06:52:17;;;;;;;8.82;2.17;;;;;;;9.93;86.93;101212.34;5278011;28;20372;-65
2022/05/30 06:54:48;;;;;;;9.57;2.55;;;;;;;10.00;88.22;101222.47;5275997;28;20085;-65
2022/05/30 07:00:10;;;;;;;6.97;1.23;;;;;;;10.16;77.55;101224.97;5276660;28;20041;-65
2022/05/30 07:02:41;;;;;;;9.25;1.90;;;;;;;10.26;80.16;101224.31;5274942;28;20028;-65
2022/05/30 07:05:14;;;;;;;7.10;1.95;;;;;;;10.42;82.79;101219.66;5277517;28;20493;-65
2022/05/30 07:07:46;;;;;;;6.63;1.33;;;;;;;10.67;79.53;101213.47;5277274;28;20042;-65
2022/05/30 07:10:17;;;;;;;8.98;1.45;;;;;;;10.90;80.52;101221.66;5276726;28;20044;-65
2022/05/30 07:12:49;;;;;;;5.25;1.38;;;;;;;10.88;77.62;101219.06;5276755;28;20035;-65
2022/05/30 07:15:20;;;;;;;6.47;1.50;;;;;;;11.19;80.36;101217.69;5275841;28;20129;-65
2022/05/30 07:17:52;;;;;;;9.45;2.05;;;;;;;11.42;78.22;101215.16;5276242;28;20043;-66
2022/05/30 07:20:24;;;;;;;6.43;1.35;;;;;;;11.52;77.13;101218.84;5274890;28;20029;-66
2022/05/30 07:22:55;;;;;;;7.40;1.38;;;;;;;11.74;76.70;101220.78;5274869;28;20051;-66
2022/05/30 07:25:26;;;;;;;5.88;1.00;;;;;;;11.78;73.00;101218.72;5277609;28;20487;-66
2022/05/30 07:27:58;;;;;;;4.85;1.33;;;;;;;11.88;74.71;101227.75;5276771;28;20177;-66
2022/05/30 07:30:30;;;;;;;7.80;0.95;;;;;;;11.90;72.29;101230.34;5276337;28;20036;-65
2022/05/30 07:33:01;;;;;;;5.50;1.00;;;;;;;11.83;71.41;101232.59;5272996;28;20028;-66
2022/05/30 07:35:33;;;;;;;3.60;0.90;;;;;;;11.79;71.61;101228.44;5275493;28;20032;-65
2022/05/30 07:38:04;;;;;;;5.45;0.80;;;;;;;11.80;68.23;101229.31;5276176;28;20031;-65
2022/05/30 07:40:35;;;;;;;5.07;1.00;;;;;;;11.76;69.57;101226.84;5276554;28;20036;-65
2022/05/30 07:43:06;;;;;;;3.45;0.93;;;;;;;11.69;66.79;101227.44;5274244;28;20545;-65
2022/05/30 07:45:38;;;;;;;4.80;0.85;;;;;;;11.71;68.63;101220.97;5274994;28;20039;-65
2022/05/30 07:48:09;;;;;;;3.33;0.95;;;;;;;11.61;67.56;101219.13;5276645;28;20031;-66
2022/05/30 07:50:41;;;;;;;4.88;0.90;;;;;;;11.62;67.62;101223.50;5274254;28;20024;-65
2022/05/30 07:53:12;;;;;;;4.25;1.00;;;;;;;11.61;67.08;101219.97;5272555;28;21364;-65
2022/05/30 07:55:44;;;;;;;4.78;1.05;;;;;;;11.52;68.93;101208.16;5276840;28;20031;-65
2022/05/30 07:58:15;;;;;;;5.35;1.20;;;;;;;11.43;67.04;101213.31;5276544;28;20028;-65
2022/05/30 08:00:49;;;;;;;6.90;1.10;;;;;;;11.37;68.54;101217.31;5272265;28;20032;-65
2022/05/30 08:03:21;;;;;;;7.88;1.20;;;;;;;11.39;70.24;101215.41;5276115;28;20021;-66
2022/05/30 08:06:12;;;;;;;6.05;1.30;;;;;;;11.49;72.22;101216.41;5272472;28;20103;-65
2022/05/30 08:08:44;;;;;;;4.32;1.10;;;;;;;11.61;72.60;101217.31;5276663;28;20033;-65
2022/05/30 08:11:16;;;;;;;3.55;1.10;;;;;;;11.88;77.62;101218.88;5276897;28;20021;-65
2022/05/30 08:13:49;;;;;;;6.22;1.40;;;;;;;11.93;70.68;101214.06;5275398;28;20085;-65
2022/05/30 08:16:23;;;;;;;5.90;1.02;;;;;;;12.24;70.11;101214.38;5275052;28;20086;-66
2022/05/30 08:18:54;;;;;;;6.43;1.00;;;;;;;12.41;66.50;101219.25;5275788;28;20288;-65
2022/05/30 08:21:26;;;;;;;4.90;1.20;;;;;;;12.40;65.77;101214.03;5276816;28;20063;-65
2022/05/30 08:23:57;;;;;;;4.00;0.95;;;;;;;12.53;67.00;101218.28;5276307;28;20502;-65
2022/05/30 08:26:28;;;;;;;4.97;0.85;;;;;;;12.62;64.88;101219.41;5270717;28;20473;-66
2022/05/30 08:28:59;;;;;;;3.38;1.00;;;;;;;12.65;63.41;101223.66;5276909;28;20031;-66
2022/05/30 08:31:31;;;;;;;2.45;1.00;;;;;;;12.60;64.93;101213.31;5274823;28;20028;-65
2022/05/30 08:34:02;;;;;;;4.22;1.15;;;;;;;12.61;63.71;101214.16;5275033;28;20067;-65
2022/05/30 08:36:33;;;;;;;4.25;0.90;;;;;;;12.46;60.68;101227.75;5277016;28;20040;-65
2022/05/30 08:41:55;;;;;;;6.07;1.00;;;;;;;12.22;62.65;101225.19;5275367;28;20463;-65
2022/05/30 08:44:30;;;;;;;6.05;1.25;;;;;;;12.19;63.80;101227.25;5276834;28;20029;-66
2022/05/30 08:47:21;;;;;;;6.05;1.65;;;;;;;12.04;62.59;101226.59;5276664;28;20056;-65
2022/05/30 08:50:03;;;;;;;4.20;1.48;;;;;;;12.07;63.42;101234.41;5274532;28;20044;-65
2022/05/30 08:52:58;;;;;;;5.32;1.35;;;;;;;12.13;64.69;101236.59;5272380;28;20025;-65
2022/05/30 08:55:40;;;;;;;5.50;1.25;;;;;;;12.16;65.96;101237.22;5274487;28;20039;-65
2022/05/30 08:58:17;;;;;;;3.85;0.80;;;;;;;12.40;68.38;101230.94;5278512;28;20086;-66
2022/05/30 09:00:50;;;;;;;4.07;1.67;;;;;;;12.48;63.82;101231.19;5277776;28;20036;-66
2022/05/30 09:03:35;;;;;;;5.80;1.27;;;;;;;12.57;66.30;101229.59;5279042;28;20036;-66
2022/05/30 09:06:18;;;;;;;4.05;1.08;;;;;;;12.79;64.15;101234.13;5279595;28;20292;-66
2022/05/30 09:08:54;;;;;;;4.68;0.93;;;;;;;12.86;61.45;101239.84;5278898;28;20034;-66
2022/05/30 09:11:25;;;;;;;5.47;1.20;;;;;;;12.97;62.40;101236.31;5281105;28;20071;-66
2022/05/30 09:14:02;;;;;;;2.63;0.98;;;;;;;13.03;59.83;101233.13;5273675;28;20530;-66
2022/05/30 09:16:37;;;;;;;3.88;1.15;;;;;;;13.16;59.15;101235.66;5271851;28;20432;-66
2022/05/30 09:19:10;;;;;;;4.70;1.33;;;;;;;13.25;61.93;101232.22;5280372;28;20144;-66
2022/05/30 09:21:42;;;;;;;7.78;1.20;;;;;;;13.22;68.56;101232.50;5276435;28;20033;-66
2022/05/30 09:24:15;;;;;;;5.30;1.10;;;;;;;13.34;59.63;101237.69;5270954;28;20064;-66
2022/05/30 09:26:46;;;;;;;4.60;1.00;;;;;;;13.37;58.12;101227.75;5280512;28;20032;-66
2022/05/30 09:29:23;;;;;;;3.75;0.80;;;;;;;13.42;61.06;101231.72;5279816;28;20033;-66
2022/05/30 09:32:21;;;;;;;4.00;0.95;;;;;;;13.45;57.38;101236.84;5279536;28;20471;-66
2022/05/30 09:34:53;;;;;;;4.55;0.80;;;;;;;13.34;55.38;101235.03;5275154;28;20708;-66
2022/05/30 09:37:30;;;;;;;3.58;1.00;;;;;;;13.31;56.52;101232.63;5277120;28;20059;-66
2022/05/30 09:40:01;;;;;;;4.97;0.90;;;;;;;13.26;54.10;101228.56;5280542;28;20099;-66
2022/05/30 09:42:37;;;;;;;2.38;1.10;;;;;;;13.47;55.82;101229.50;5279391;28;20032;-66
2022/05/30 09:45:12;;;;;;;2.85;0.93;;;;;;;13.51;55.87;101230.13;5278876;28;20077;-66
2022/05/30 09:48:01;;;;;;;3.88;1.15;;;;;;;13.57;57.66;101228.75;5272514;28;20039;-66
2022/05/30 09:50:41;;;;;;;2.90;0.82;;;;;;;13.72;54.47;101227.47;5277232;28;20052;-66
2022/05/30 09:53:32;;;;;;;5.47;1.70;;;;;;;13.65;53.57;101235.19;5279947;28;20532;-66
2022/05/30 09:56:04;;;;;;;4.35;1.00;;;;;;;13.75;57.27;101227.22;5275577;28;20067;-66
2022/05/30 09:59:00;;;;;;;3.63;0.90;;;;;;;13.84;55.78;101231.78;5278643;28;20048;-66
2022/05/30 10:01:35;;;;;;;5.55;1.15;;;;;;;13.96;55.87;101229.06;5275455;28;20437;-66
2022/05/30 10:04:25;;;;;;;;;;;;;;;14.28;61.06;101229.84;5278328;28;20024;-66
2022/05/30 10:07:16;;;;;;;9.73;2.20;;;;;;;14.27;55.47;101230.00;5279246;28;19913;-66
2022/05/30 10:10:10;;;;;;;11.57;1.70;;;;;;;14.32;57.05;101230.44;5274115;28;20051;-66
2022/05/30 10:12:52;;;;;;;4.25;0.75;;;;;;;14.31;53.30;101234.13;5278225;28;20027;-66
2022/05/30 10:15:29;;;;;;;2.92;0.82;;;;;;;14.40;56.91;101227.97;5278947;28;20028;-66
2022/05/30 10:18:12;;;;;;;5.03;1.20;;;;;;;14.60;60.37;101234.28;5279638;28;20366;-66
2022/05/30 10:21:23;;;;;;;5.72;1.00;;;;;;;14.69;55.88;101233.50;5278654;28;20408;-66
2022/05/30 10:30:26;;;;;;;4.07;0.75;;;;;;;14.77;56.13;101237.34;5279847;28;20115;-66
2022/05/30 10:33:04;;;;;;;3.58;0.93;;;;;;;14.59;49.63;101235.25;5276755;28;20348;-66
2022/05/30 10:36:13;;;;;;;6.78;0.77;;;;;;;14.66;53.86;101231.06;5270882;28;20539;-66
2022/05/30 10:39:11;;;;;;;4.55;1.00;;;;;;;14.67;53.81;101237.31;5259605;28;20045;-66
2022/05/30 10:42:05;;;;;;;3.65;0.65;;;;;;;14.87;52.88;101231.00;5277284;28;20489;-66
2022/05/30 10:44:43;;;;;;;3.72;1.13;;;;;;;15.03;53.62;101237.72;5277540;28;20121;-66
2022/05/30 10:47:23;;;;;;;3.22;0.90;;;;;;;15.12;52.81;101231.50;5280366;28;20038;-67
2022/05/30 10:50:04;;;;;;;4.18;1.33;;;;;;;15.16;52.76;101232.94;5279615;28;20034;-67
2022/05/30 10:52:40;;;;;;;4.18;0.90;;;;;;;15.16;49.32;101241.00;5278175;28;20074;-67
2022/05/30 10:55:17;;;;;;;4.50;1.20;;;;;;;15.45;48.90;101241.03;5279809;28;20107;-67
2022/05/30 10:57:52;;;;;;;4.10;0.88;;;;;;;15.57;49.22;101241.78;5278872;28;20042;-67
2022/05/30 11:00:31;;;;;;;3.90;1.08;;;;;;;15.54;50.04;101243.91;5279293;28;20475;-67
2022/05/30 11:03:20;;;;;;;3.03;0.82;;;;;;;15.54;48.53;101238.53;5279588;28;20036;-67
2022/05/30 11:06:07;;;;;;;4.88;1.20;;;;;;;15.48;49.45;101235.41;5278563;28;20031;-67
2022/05/30 11:09:15;;;;;;;4.10;0.90;;;;;;;15.42;49.98;101235.13;5278304;28;20021;-67
2022/05/30 11:12:05;;;;;;;4.25;0.70;;;;;;;15.22;49.26;101240.44;5279100;28;20028;-66
2022/05/30 11:15:10;;;;;;;6.88;1.33;;;;;;;15.02;52.16;101244.94;5278869;28;20467;-66
2022/05/30 11:17:59;;;;;;;5.47;1.30;;;;;;;14.86;54.20;101244.56;5276231;28;20394;-66
2022/05/30 11:20:39;;;;;;;4.72;1.60;;;;;;;14.55;51.25;101241.03;5278782;28;20082;-66
2022/05/30 11:23:11;;;;;;;3.65;1.20;;;;;;;14.53;55.24;101241.16;5272619;28;20557;-67
2022/05/30 11:26:04;;;;;;;5.38;1.20;;;;;;;14.50;52.87;101233.38;5277752;28;20040;-67
2022/05/30 11:29:07;;;;;;;4.30;1.23;;;;;;;14.57;55.04;101244.44;5271355;28;20033;-67
2022/05/30 11:31:57;;;;;;;5.68;1.48;;;;;;;14.57;55.96;101244.44;5275664;28;20111;-67
2022/05/30 11:34:47;;;;;;;5.35;1.50;;;;;;;14.80;57.82;101240.59;5279490;28;20020;-67
2022/05/30 11:37:25;;;;;;;4.28;1.35;;;;;;;14.98;56.63;101237.28;5273447;28;20609;-67
2022/05/30 11:40:06;;;;;;;4.60;1.10;;;;;;;14.92;57.87;101243.19;5279109;28;20061;-67
2022/05/30 11:42:49;;;;;;;6.43;1.50;;;;;;;15.08;54.50;101239.00;5279773;28;20025;-67
2022/05/30 11:45:29;;;;;;;4.67;1.17;;;;;;;15.13;50.89;101248.47;5279226;28;20028;-67
2022/05/30 11:48:09;;;;;;;7.82;1.50;;;;;;;15.14;59.02;101248.34;5278967;28;20036;-67
2022/05/30 11:50:54;;;;;;;7.22;1.38;;;;;;;15.31;59.37;101238.78;5279039;28;20115;-66
2022/05/30 11:53:50;;;;;;;4.80;1.42;;;;;;;15.52;56.82;101246.72;5278854;28;20093;-67
2022/05/30 11:56:34;;;;;;;4.88;1.40;;;;;;;15.45;54.08;101238.34;5278590;28;20513;-67
2022/05/30 11:59:14;;;;;;;4.23;1.50;;;;;;;15.41;52.15;101250.38;5278620;28;20024;-67
2022/05/30 12:01:49;;;;;;;4.50;1.48;;;;;;;15.56;52.49;101240.09;5278379;28;20286;-67
2022/05/30 12:04:58;;;;;;;6.18;1.50;;;;;;;15.49;53.39;101242.50;5277632;28;20046;-67
2022/05/30 12:07:44;;;;;;;4.45;1.45;;;;;;;15.47;51.16;101243.59;5278333;28;20032;-67
2022/05/30 12:10:26;;;;;;;3.95;1.23;;;;;;;15.53;61.27;101247.56;5277258;28;20545;-67
2022/05/30 12:13:35;;;;;;;5.47;1.35;;;;;;;15.74;54.54;101251.00;5278711;28;20017;-67
2022/05/30 12:16:40;;;;;;;5.18;1.65;;;;;;;15.98;52.50;101247.91;5271750;28;20490;-67
2022/05/30 12:24:56;;;;;;;3.92;1.50;;;;;;;16.14;47.27;101236.53;5273521;28;20511;-68
2022/05/30 12:27:30;;;;;;;5.03;1.38;;;;;;;16.23;47.97;101238.38;5278749;28;20052;-67
2022/05/30 12:30:05;;;;;;;3.83;1.08;;;;;;;16.02;48.76;101237.72;5280066;28;20029;-68
2022/05/30 12:32:38;;;;;;;3.88;1.05;;;;;;;16.11;47.16;101242.22;5280691;28;20036;-67